sensor_id;sensor_type;location;lat;lon;timestamp;P1;durP1;ratioP1;P2;durP2;ratioP2
38859;SDS011;24609;48.316;16.174;2022-07-22T00:00:57;11.10;;;9.90;;
38859;SDS011;24609;48.316;16.174;2022-07-22T00:03:23;11.63;;;10.02;;
38859;SDS011;24609;48.316;16.174;2022-07-22T00:05:48;12.30;;;10.05;;
38859;SDS011;24609;48.316;16.174;2022-07-22T00:08:14;12.35;;;8.88;;
38859;SDS011;24609;48.316;16.174;2022-07-22T00:10:40;15.18;;;9.35;;
38859;SDS011;24609;48.316;16.174;2022-07-22T00:13:06;14.43;;;10.60;;
38859;SDS011;24609;48.316;16.174;2022-07-22T00:15:32;11.95;;;10.65;;
38859;SDS011;24609;48.316;16.174;2022-07-22T00:17:58;13.98;;;9.52;;
38859;SDS011;24609;48.316;16.174;2022-07-22T00:20:24;11.57;;;9.48;;
38859;SDS011;24609;48.316;16.174;2022-07-22T00:22:50;11.88;;;10.60;;
38859;SDS011;24609;48.316;16.174;2022-07-22T00:25:16;11.15;;;9.70;;
38859;SDS011;24609;48.316;16.174;2022-07-22T00:27:41;12.20;;;10.35;;
38859;SDS011;24609;48.316;16.174;2022-07-22T00:30:07;10.88;;;9.63;;
38859;SDS011;24609;48.316;16.174;2022-07-22T00:32:33;13.10;;;10.38;;
38859;SDS011;24609;48.316;16.174;2022-07-22T00:34:59;10.30;;;9.25;;
38859;SDS011;24609;48.316;16.174;2022-07-22T00:37:25;12.40;;;10.57;;
38859;SDS011;24609;48.316;16.174;2022-07-22T00:39:51;11.30;;;10.13;;
38859;SDS011;24609;48.316;16.174;2022-07-22T00:42:17;10.98;;;9.65;;
38859;SDS011;24609;48.316;16.174;2022-07-22T00:44:43;12.45;;;9.82;;
38859;SDS011;24609;48.316;16.174;2022-07-22T00:47:09;11.68;;;10.48;;
38859;SDS011;24609;48.316;16.174;2022-07-22T00:49:35;13.07;;;9.95;;
38859;SDS011;24609;48.316;16.174;2022-07-22T00:52:00;13.98;;;10.90;;
38859;SDS011;24609;48.316;16.174;2022-07-22T00:54:26;12.85;;;11.48;;
38859;SDS011;24609;48.316;16.174;2022-07-22T00:56:52;14.55;;;10.57;;
38859;SDS011;24609;48.316;16.174;2022-07-22T00:59:18;12.55;;;10.40;;
38859;SDS011;24609;48.316;16.174;2022-07-22T01:01:43;11.30;;;10.13;;
38859;SDS011;24609;48.316;16.174;2022-07-22T01:04:09;12.38;;;11.10;;
38859;SDS011;24609;48.316;16.174;2022-07-22T01:06:35;11.57;;;10.38;;
38859;SDS011;24609;48.316;16.174;2022-07-22T01:09:01;11.77;;;10.57;;
38859;SDS011;24609;48.316;16.174;2022-07-22T01:11:27;13.00;;;11.55;;
38859;SDS011;24609;48.316;16.174;2022-07-22T01:13:53;11.25;;;10.18;;
38859;SDS011;24609;48.316;16.174;2022-07-22T01:16:21;12.35;;;10.85;;
38859;SDS011;24609;48.316;16.174;2022-07-22T01:18:47;11.43;;;10.23;;
38859;SDS011;24609;48.316;16.174;2022-07-22T01:21:13;12.52;;;10.85;;
38859;SDS011;24609;48.316;16.174;2022-07-22T01:23:40;13.18;;;10.68;;
38859;SDS011;24609;48.316;16.174;2022-07-22T01:26:06;12.63;;;11.13;;
38859;SDS011;24609;48.316;16.174;2022-07-22T01:28:32;13.57;;;10.55;;
38859;SDS011;24609;48.316;16.174;2022-07-22T01:30:58;13.95;;;11.07;;
38859;SDS011;24609;48.316;16.174;2022-07-22T01:33:24;12.50;;;11.30;;
38859;SDS011;24609;48.316;16.174;2022-07-22T01:35:50;12.48;;;11.18;;
38859;SDS011;24609;48.316;16.174;2022-07-22T01:38:16;14.77;;;10.40;;
38859;SDS011;24609;48.316;16.174;2022-07-22T01:40:43;12.02;;;10.70;;
38859;SDS011;24609;48.316;16.174;2022-07-22T01:43:09;11.93;;;10.73;;
38859;SDS011;24609;48.316;16.174;2022-07-22T01:45:35;11.93;;;10.68;;
38859;SDS011;24609;48.316;16.174;2022-07-22T01:48:02;12.00;;;10.48;;
38859;SDS011;24609;48.316;16.174;2022-07-22T01:50:28;12.40;;;11.15;;
38859;SDS011;24609;48.316;16.174;2022-07-22T01:52:54;13.30;;;11.15;;
38859;SDS011;24609;48.316;16.174;2022-07-22T01:55:20;13.60;;;12.20;;
38859;SDS011;24609;48.316;16.174;2022-07-22T01:57:45;13.88;;;10.88;;
38859;SDS011;24609;48.316;16.174;2022-07-22T02:00:11;16.08;;;10.82;;
38859;SDS011;24609;48.316;16.174;2022-07-22T02:02:37;11.32;;;10.18;;
38859;SDS011;24609;48.316;16.174;2022-07-22T02:05:05;13.35;;;11.20;;
38859;SDS011;24609;48.316;16.174;2022-07-22T02:07:31;11.70;;;10.50;;
38859;SDS011;24609;48.316;16.174;2022-07-22T02:09:57;11.85;;;10.65;;
38859;SDS011;24609;48.316;16.174;2022-07-22T02:12:23;13.50;;;11.55;;
38859;SDS011;24609;48.316;16.174;2022-07-22T02:14:49;13.23;;;11.63;;
38859;SDS011;24609;48.316;16.174;2022-07-22T02:17:15;12.63;;;11.43;;
38859;SDS011;24609;48.316;16.174;2022-07-22T02:19:40;11.48;;;10.27;;
38859;SDS011;24609;48.316;16.174;2022-07-22T02:22:07;11.55;;;10.20;;
38859;SDS011;24609;48.316;16.174;2022-07-22T02:24:33;12.00;;;9.60;;
38859;SDS011;24609;48.316;16.174;2022-07-22T02:26:59;12.48;;;11.20;;
38859;SDS011;24609;48.316;16.174;2022-07-22T02:29:26;12.07;;;10.80;;
38859;SDS011;24609;48.316;16.174;2022-07-22T02:31:52;12.98;;;11.13;;
38859;SDS011;24609;48.316;16.174;2022-07-22T02:34:18;11.57;;;10.27;;
38859;SDS011;24609;48.316;16.174;2022-07-22T02:36:43;12.77;;;10.90;;
38859;SDS011;24609;48.316;16.174;2022-07-22T02:39:09;15.43;;;11.75;;
38859;SDS011;24609;48.316;16.174;2022-07-22T02:41:35;12.57;;;11.38;;
38859;SDS011;24609;48.316;16.174;2022-07-22T02:44:00;14.70;;;11.63;;
38859;SDS011;24609;48.316;16.174;2022-07-22T02:46:26;18.10;;;13.35;;
38859;SDS011;24609;48.316;16.174;2022-07-22T02:48:55;17.30;;;11.68;;
38859;SDS011;24609;48.316;16.174;2022-07-22T02:51:21;13.18;;;11.77;;
38859;SDS011;24609;48.316;16.174;2022-07-22T02:53:47;12.35;;;11.13;;
38859;SDS011;24609;48.316;16.174;2022-07-22T02:56:13;12.02;;;10.60;;
38859;SDS011;24609;48.316;16.174;2022-07-22T02:58:39;12.57;;;11.30;;
38859;SDS011;24609;48.316;16.174;2022-07-22T03:01:05;13.18;;;11.60;;
38859;SDS011;24609;48.316;16.174;2022-07-22T03:03:31;12.43;;;10.32;;
38859;SDS011;24609;48.316;16.174;2022-07-22T03:05:57;13.25;;;11.70;;
38859;SDS011;24609;48.316;16.174;2022-07-22T03:08:23;17.05;;;13.00;;
38859;SDS011;24609;48.316;16.174;2022-07-22T03:10:48;13.02;;;11.63;;
38859;SDS011;24609;48.316;16.174;2022-07-22T03:13:14;12.63;;;11.32;;
38859;SDS011;24609;48.316;16.174;2022-07-22T03:15:40;13.98;;;11.85;;
38859;SDS011;24609;48.316;16.174;2022-07-22T03:18:05;12.57;;;10.95;;
38859;SDS011;24609;48.316;16.174;2022-07-22T03:20:31;13.73;;;12.27;;
38859;SDS011;24609;48.316;16.174;2022-07-22T03:22:58;13.38;;;11.98;;
38859;SDS011;24609;48.316;16.174;2022-07-22T03:25:24;14.32;;;12.68;;
38859;SDS011;24609;48.316;16.174;2022-07-22T03:27:49;15.52;;;11.85;;
38859;SDS011;24609;48.316;16.174;2022-07-22T03:30:15;12.65;;;11.20;;
38859;SDS011;24609;48.316;16.174;2022-07-22T03:32:41;14.27;;;11.43;;
38859;SDS011;24609;48.316;16.174;2022-07-22T03:35:10;16.95;;;12.77;;
38859;SDS011;24609;48.316;16.174;2022-07-22T03:37:36;13.40;;;12.07;;
38859;SDS011;24609;48.316;16.174;2022-07-22T03:40:02;12.00;;;10.80;;
38859;SDS011;24609;48.316;16.174;2022-07-22T03:42:28;11.90;;;10.38;;
38859;SDS011;24609;48.316;16.174;2022-07-22T03:44:54;12.95;;;10.85;;
38859;SDS011;24609;48.316;16.174;2022-07-22T03:47:20;11.90;;;10.70;;
38859;SDS011;24609;48.316;16.174;2022-07-22T03:49:47;12.57;;;11.27;;
38859;SDS011;24609;48.316;16.174;2022-07-22T03:52:13;16.05;;;12.43;;
38859;SDS011;24609;48.316;16.174;2022-07-22T03:54:40;13.98;;;12.05;;
38859;SDS011;24609;48.316;16.174;2022-07-22T03:57:06;13.07;;;11.68;;
38859;SDS011;24609;48.316;16.174;2022-07-22T03:59:33;14.05;;;11.75;;
38859;SDS011;24609;48.316;16.174;2022-07-22T04:01:59;14.38;;;12.48;;
38859;SDS011;24609;48.316;16.174;2022-07-22T04:04:25;13.90;;;12.25;;
38859;SDS011;24609;48.316;16.174;2022-07-22T04:06:50;14.00;;;12.07;;
38859;SDS011;24609;48.316;16.174;2022-07-22T04:09:16;13.63;;;12.02;;
38859;SDS011;24609;48.316;16.174;2022-07-22T04:11:42;15.02;;;11.93;;
38859;SDS011;24609;48.316;16.174;2022-07-22T04:14:08;15.07;;;13.68;;
38859;SDS011;24609;48.316;16.174;2022-07-22T04:16:34;13.63;;;12.23;;
38859;SDS011;24609;48.316;16.174;2022-07-22T04:19:00;15.82;;;13.23;;
38859;SDS011;24609;48.316;16.174;2022-07-22T04:21:26;16.38;;;12.68;;
38859;SDS011;24609;48.316;16.174;2022-07-22T04:23:52;14.82;;;12.52;;
38859;SDS011;24609;48.316;16.174;2022-07-22T04:26:18;17.33;;;12.57;;
38859;SDS011;24609;48.316;16.174;2022-07-22T04:28:44;17.70;;;13.77;;
38859;SDS011;24609;48.316;16.174;2022-07-22T04:31:09;16.67;;;13.48;;
38859;SDS011;24609;48.316;16.174;2022-07-22T04:33:35;14.70;;;12.27;;
38859;SDS011;24609;48.316;16.174;2022-07-22T04:36:01;14.93;;;11.15;;
38859;SDS011;24609;48.316;16.174;2022-07-22T04:38:27;14.40;;;12.80;;
38859;SDS011;24609;48.316;16.174;2022-07-22T04:40:52;14.55;;;11.98;;
38859;SDS011;24609;48.316;16.174;2022-07-22T04:43:18;15.15;;;12.27;;
38859;SDS011;24609;48.316;16.174;2022-07-22T04:45:44;13.30;;;12.15;;
38859;SDS011;24609;48.316;16.174;2022-07-22T04:48:09;16.95;;;15.40;;
38859;SDS011;24609;48.316;16.174;2022-07-22T04:50:36;16.80;;;15.40;;
38859;SDS011;24609;48.316;16.174;2022-07-22T04:53:01;16.48;;;14.90;;
38859;SDS011;24609;48.316;16.174;2022-07-22T04:55:27;18.55;;;16.92;;
38859;SDS011;24609;48.316;16.174;2022-07-22T04:57:53;19.25;;;17.55;;
38859;SDS011;24609;48.316;16.174;2022-07-22T05:00:19;20.38;;;18.35;;
38859;SDS011;24609;48.316;16.174;2022-07-22T05:02:44;20.52;;;18.90;;
38859;SDS011;24609;48.316;16.174;2022-07-22T05:05:10;22.92;;;21.02;;
38859;SDS011;24609;48.316;16.174;2022-07-22T05:07:36;24.70;;;22.80;;
38859;SDS011;24609;48.316;16.174;2022-07-22T05:10:02;25.25;;;23.10;;
38859;SDS011;24609;48.316;16.174;2022-07-22T05:12:27;22.63;;;20.58;;
38859;SDS011;24609;48.316;16.174;2022-07-22T05:14:53;20.90;;;19.17;;
38859;SDS011;24609;48.316;16.174;2022-07-22T05:17:19;22.13;;;20.40;;
38859;SDS011;24609;48.316;16.174;2022-07-22T05:19:45;24.98;;;23.10;;
38859;SDS011;24609;48.316;16.174;2022-07-22T05:22:10;24.45;;;22.60;;
38859;SDS011;24609;48.316;16.174;2022-07-22T05:24:36;28.17;;;26.08;;
38859;SDS011;24609;48.316;16.174;2022-07-22T05:27:02;22.80;;;21.00;;
38859;SDS011;24609;48.316;16.174;2022-07-22T05:29:27;24.38;;;22.35;;
38859;SDS011;24609;48.316;16.174;2022-07-22T05:31:53;31.15;;;28.35;;
38859;SDS011;24609;48.316;16.174;2022-07-22T05:34:19;28.23;;;26.42;;
38859;SDS011;24609;48.316;16.174;2022-07-22T05:36:45;28.92;;;27.05;;
38859;SDS011;24609;48.316;16.174;2022-07-22T05:39:11;36.58;;;34.30;;
38859;SDS011;24609;48.316;16.174;2022-07-22T05:41:36;32.30;;;30.08;;
38859;SDS011;24609;48.316;16.174;2022-07-22T05:44:03;19.02;;;17.38;;
38859;SDS011;24609;48.316;16.174;2022-07-22T05:46:29;19.70;;;18.23;;
38859;SDS011;24609;48.316;16.174;2022-07-22T05:48:55;20.38;;;18.60;;
38859;SDS011;24609;48.316;16.174;2022-07-22T05:51:21;21.40;;;19.73;;
38859;SDS011;24609;48.316;16.174;2022-07-22T05:53:47;32.90;;;30.73;;
38859;SDS011;24609;48.316;16.174;2022-07-22T05:56:13;37.22;;;34.70;;
38859;SDS011;24609;48.316;16.174;2022-07-22T05:58:39;31.45;;;29.17;;
38859;SDS011;24609;48.316;16.174;2022-07-22T06:01:06;40.60;;;38.05;;
38859;SDS011;24609;48.316;16.174;2022-07-22T06:03:32;27.55;;;25.05;;
38859;SDS011;24609;48.316;16.174;2022-07-22T06:05:58;18.20;;;16.85;;
38859;SDS011;24609;48.316;16.174;2022-07-22T06:08:26;20.27;;;18.45;;
38859;SDS011;24609;48.316;16.174;2022-07-22T06:10:52;19.70;;;18.10;;
38859;SDS011;24609;48.316;16.174;2022-07-22T06:13:18;22.30;;;20.60;;
38859;SDS011;24609;48.316;16.174;2022-07-22T06:15:44;21.95;;;20.30;;
38859;SDS011;24609;48.316;16.174;2022-07-22T06:18:10;20.23;;;18.63;;
38859;SDS011;24609;48.316;16.174;2022-07-22T06:20:36;20.33;;;18.30;;
38859;SDS011;24609;48.316;16.174;2022-07-22T06:23:01;19.27;;;17.67;;
38859;SDS011;24609;48.316;16.174;2022-07-22T06:25:27;18.30;;;16.80;;
38859;SDS011;24609;48.316;16.174;2022-07-22T06:27:53;19.40;;;17.42;;
38859;SDS011;24609;48.316;16.174;2022-07-22T06:30:19;19.83;;;18.13;;
38859;SDS011;24609;48.316;16.174;2022-07-22T06:32:45;21.50;;;19.67;;
38859;SDS011;24609;48.316;16.174;2022-07-22T06:35:11;16.63;;;15.35;;
38859;SDS011;24609;48.316;16.174;2022-07-22T06:37:36;22.17;;;20.55;;
38859;SDS011;24609;48.316;16.174;2022-07-22T06:40:03;14.68;;;13.27;;
38859;SDS011;24609;48.316;16.174;2022-07-22T06:42:29;11.25;;;10.15;;
38859;SDS011;24609;48.316;16.174;2022-07-22T06:44:54;11.18;;;9.93;;
38859;SDS011;24609;48.316;16.174;2022-07-22T06:47:20;11.68;;;10.48;;
38859;SDS011;24609;48.316;16.174;2022-07-22T06:49:46;11.48;;;10.23;;
38859;SDS011;24609;48.316;16.174;2022-07-22T06:52:12;12.77;;;11.45;;
38859;SDS011;24609;48.316;16.174;2022-07-22T06:54:37;12.48;;;11.18;;
38859;SDS011;24609;48.316;16.174;2022-07-22T06:57:03;14.88;;;13.57;;
38859;SDS011;24609;48.316;16.174;2022-07-22T06:59:29;14.27;;;12.88;;
38859;SDS011;24609;48.316;16.174;2022-07-22T07:01:55;11.55;;;10.48;;
38859;SDS011;24609;48.316;16.174;2022-07-22T07:04:20;9.90;;;9.00;;
38859;SDS011;24609;48.316;16.174;2022-07-22T07:06:46;11.48;;;9.30;;
38859;SDS011;24609;48.316;16.174;2022-07-22T07:09:12;16.70;;;8.63;;
38859;SDS011;24609;48.316;16.174;2022-07-22T07:11:38;7.70;;;6.97;;
38859;SDS011;24609;48.316;16.174;2022-07-22T07:14:03;8.43;;;7.20;;
38859;SDS011;24609;48.316;16.174;2022-07-22T07:16:29;9.38;;;7.85;;
38859;SDS011;24609;48.316;16.174;2022-07-22T07:18:55;8.48;;;7.57;;
38859;SDS011;24609;48.316;16.174;2022-07-22T07:21:21;7.78;;;7.07;;
38859;SDS011;24609;48.316;16.174;2022-07-22T07:23:47;9.52;;;7.63;;
38859;SDS011;24609;48.316;16.174;2022-07-22T07:26:12;10.38;;;9.00;;
38859;SDS011;24609;48.316;16.174;2022-07-22T07:28:38;8.10;;;7.40;;
38859;SDS011;24609;48.316;16.174;2022-07-22T07:31:04;10.98;;;8.70;;
38859;SDS011;24609;48.316;16.174;2022-07-22T07:33:30;12.18;;;8.82;;
38859;SDS011;24609;48.316;16.174;2022-07-22T07:35:56;10.27;;;8.90;;
38859;SDS011;24609;48.316;16.174;2022-07-22T07:38:22;11.38;;;8.80;;
38859;SDS011;24609;48.316;16.174;2022-07-22T07:40:47;8.15;;;7.25;;
38859;SDS011;24609;48.316;16.174;2022-07-22T07:43:13;11.35;;;8.45;;
38859;SDS011;24609;48.316;16.174;2022-07-22T07:45:39;10.20;;;8.98;;
38859;SDS011;24609;48.316;16.174;2022-07-22T07:48:05;9.63;;;8.55;;
38859;SDS011;24609;48.316;16.174;2022-07-22T07:50:31;14.25;;;12.90;;
38859;SDS011;24609;48.316;16.174;2022-07-22T07:52:57;8.98;;;8.15;;
38859;SDS011;24609;48.316;16.174;2022-07-22T07:55:22;10.75;;;9.75;;
38859;SDS011;24609;48.316;16.174;2022-07-22T07:57:49;10.18;;;9.27;;
38859;SDS011;24609;48.316;16.174;2022-07-22T08:00:16;12.02;;;10.93;;
38859;SDS011;24609;48.316;16.174;2022-07-22T08:02:46;11.57;;;10.27;;
38859;SDS011;24609;48.316;16.174;2022-07-22T08:05:12;11.07;;;9.98;;
38859;SDS011;24609;48.316;16.174;2022-07-22T08:07:38;12.25;;;11.25;;
38859;SDS011;24609;48.316;16.174;2022-07-22T08:10:07;13.30;;;11.90;;
38859;SDS011;24609;48.316;16.174;2022-07-22T08:12:33;10.93;;;9.98;;
38859;SDS011;24609;48.316;16.174;2022-07-22T08:14:59;13.27;;;12.18;;
38859;SDS011;24609;48.316;16.174;2022-07-22T08:17:25;13.38;;;12.25;;
38859;SDS011;24609;48.316;16.174;2022-07-22T08:19:52;12.15;;;11.02;;
38859;SDS011;24609;48.316;16.174;2022-07-22T08:22:18;9.48;;;8.57;;
38859;SDS011;24609;48.316;16.174;2022-07-22T08:24:43;10.43;;;8.60;;
38859;SDS011;24609;48.316;16.174;2022-07-22T08:27:09;9.30;;;8.38;;
38859;SDS011;24609;48.316;16.174;2022-07-22T08:29:35;11.90;;;9.35;;
38859;SDS011;24609;48.316;16.174;2022-07-22T08:32:00;8.98;;;8.18;;
38859;SDS011;24609;48.316;16.174;2022-07-22T08:34:26;10.18;;;8.02;;
38859;SDS011;24609;48.316;16.174;2022-07-22T08:36:52;11.15;;;8.75;;
38859;SDS011;24609;48.316;16.174;2022-07-22T08:39:19;9.63;;;8.30;;
38859;SDS011;24609;48.316;16.174;2022-07-22T08:41:44;12.68;;;8.73;;
38859;SDS011;24609;48.316;16.174;2022-07-22T08:44:10;8.65;;;7.80;;
38859;SDS011;24609;48.316;16.174;2022-07-22T08:46:36;9.13;;;8.10;;
38859;SDS011;24609;48.316;16.174;2022-07-22T08:49:02;9.55;;;8.30;;
38859;SDS011;24609;48.316;16.174;2022-07-22T08:51:28;9.35;;;8.43;;
38859;SDS011;24609;48.316;16.174;2022-07-22T08:53:54;8.98;;;8.15;;
38859;SDS011;24609;48.316;16.174;2022-07-22T08:56:20;10.50;;;8.73;;
38859;SDS011;24609;48.316;16.174;2022-07-22T08:58:46;9.75;;;8.95;;
38859;SDS011;24609;48.316;16.174;2022-07-22T09:01:13;9.23;;;8.35;;
38859;SDS011;24609;48.316;16.174;2022-07-22T09:03:44;10.30;;;8.60;;
38859;SDS011;24609;48.316;16.174;2022-07-22T09:06:14;8.40;;;7.40;;
38859;SDS011;24609;48.316;16.174;2022-07-22T09:11:21;8.57;;;7.78;;
38859;SDS011;24609;48.316;16.174;2022-07-22T09:13:48;9.77;;;7.57;;
38859;SDS011;24609;48.316;16.174;2022-07-22T09:16:14;8.15;;;7.35;;
38859;SDS011;24609;48.316;16.174;2022-07-22T09:18:47;10.88;;;7.18;;
38859;SDS011;24609;48.316;16.174;2022-07-22T09:21:18;7.97;;;7.18;;
38859;SDS011;24609;48.316;16.174;2022-07-22T09:23:45;7.35;;;6.65;;
38859;SDS011;24609;48.316;16.174;2022-07-22T09:26:53;7.88;;;7.13;;
38859;SDS011;24609;48.316;16.174;2022-07-22T09:29:01;6.80;;;6.10;;
38859;SDS011;24609;48.316;16.174;2022-07-22T09:31:29;9.15;;;7.13;;
38859;SDS011;24609;48.316;16.174;2022-07-22T09:34:00;10.77;;;7.30;;
38859;SDS011;24609;48.316;16.174;2022-07-22T09:36:26;8.37;;;7.00;;
38859;SDS011;24609;48.316;16.174;2022-07-22T09:38:52;7.70;;;6.85;;
38859;SDS011;24609;48.316;16.174;2022-07-22T09:41:18;7.38;;;6.60;;
38859;SDS011;24609;48.316;16.174;2022-07-22T09:43:46;7.68;;;6.90;;
38859;SDS011;24609;48.316;16.174;2022-07-22T09:46:12;9.20;;;7.18;;
38859;SDS011;24609;48.316;16.174;2022-07-22T09:48:38;7.47;;;6.07;;
38859;SDS011;24609;48.316;16.174;2022-07-22T09:51:05;7.80;;;6.65;;
38859;SDS011;24609;48.316;16.174;2022-07-22T09:53:31;7.80;;;7.00;;
38859;SDS011;24609;48.316;16.174;2022-07-22T09:55:58;6.45;;;5.85;;
38859;SDS011;24609;48.316;16.174;2022-07-22T09:58:26;7.93;;;6.87;;
38859;SDS011;24609;48.316;16.174;2022-07-22T10:00:52;7.18;;;6.38;;
38859;SDS011;24609;48.316;16.174;2022-07-22T10:03:26;6.55;;;5.97;;
38859;SDS011;24609;48.316;16.174;2022-07-22T10:05:53;7.38;;;6.43;;
38859;SDS011;24609;48.316;16.174;2022-07-22T10:08:19;7.20;;;6.40;;
38859;SDS011;24609;48.316;16.174;2022-07-22T10:10:45;7.18;;;6.47;;
38859;SDS011;24609;48.316;16.174;2022-07-22T10:13:11;7.20;;;6.57;;
38859;SDS011;24609;48.316;16.174;2022-07-22T10:15:37;7.72;;;6.95;;
38859;SDS011;24609;48.316;16.174;2022-07-22T10:18:04;12.18;;;6.50;;
38859;SDS011;24609;48.316;16.174;2022-07-22T10:20:33;7.85;;;6.53;;
38859;SDS011;24609;48.316;16.174;2022-07-22T10:23:04;8.90;;;5.80;;
38859;SDS011;24609;48.316;16.174;2022-07-22T10:25:32;9.23;;;6.00;;
38859;SDS011;24609;48.316;16.174;2022-07-22T10:28:21;6.85;;;6.13;;
38859;SDS011;24609;48.316;16.174;2022-07-22T10:30:52;7.53;;;6.03;;
38859;SDS011;24609;48.316;16.174;2022-07-22T10:33:19;7.07;;;5.57;;
38859;SDS011;24609;48.316;16.174;2022-07-22T10:35:53;6.60;;;5.90;;
38859;SDS011;24609;48.316;16.174;2022-07-22T10:38:20;6.65;;;5.75;;
38859;SDS011;24609;48.316;16.174;2022-07-22T10:43:12;6.30;;;5.70;;
38859;SDS011;24609;48.316;16.174;2022-07-22T10:45:41;7.90;;;5.68;;
38859;SDS011;24609;48.316;16.174;2022-07-22T10:48:11;6.60;;;6.00;;
38859;SDS011;24609;48.316;16.174;2022-07-22T10:56:33;6.03;;;5.30;;
38859;SDS011;24609;48.316;16.174;2022-07-22T11:01:40;9.23;;;5.82;;
38859;SDS011;24609;48.316;16.174;2022-07-22T11:04:09;7.35;;;5.90;;
38859;SDS011;24609;48.316;16.174;2022-07-22T11:06:35;6.25;;;5.75;;
38859;SDS011;24609;48.316;16.174;2022-07-22T11:09:06;5.70;;;5.20;;
38859;SDS011;24609;48.316;16.174;2022-07-22T11:16:50;6.03;;;5.53;;
38859;SDS011;24609;48.316;16.174;2022-07-22T11:19:35;9.70;;;6.53;;
38859;SDS011;24609;48.316;16.174;2022-07-22T11:22:11;6.20;;;5.55;;
38859;SDS011;24609;48.316;16.174;2022-07-22T11:24:39;5.88;;;5.22;;
38859;SDS011;24609;48.316;16.174;2022-07-22T11:27:23;5.80;;;5.20;;
38859;SDS011;24609;48.316;16.174;2022-07-22T11:29:51;5.38;;;4.97;;
38859;SDS011;24609;48.316;16.174;2022-07-22T11:32:19;7.03;;;5.25;;
38859;SDS011;24609;48.316;16.174;2022-07-22T11:34:46;5.55;;;5.00;;
38859;SDS011;24609;48.316;16.174;2022-07-22T11:37:16;6.00;;;5.40;;
38859;SDS011;24609;48.316;16.174;2022-07-22T11:39:43;5.13;;;4.63;;
38859;SDS011;24609;48.316;16.174;2022-07-22T11:42:09;6.53;;;4.88;;
38859;SDS011;24609;48.316;16.174;2022-07-22T11:44:36;5.43;;;4.93;;
38859;SDS011;24609;48.316;16.174;2022-07-22T11:47:03;5.13;;;4.72;;
38859;SDS011;24609;48.316;16.174;2022-07-22T11:49:31;6.18;;;4.72;;
38859;SDS011;24609;48.316;16.174;2022-07-22T11:51:59;6.70;;;5.10;;
38859;SDS011;24609;48.316;16.174;2022-07-22T11:54:25;6.38;;;5.45;;
38859;SDS011;24609;48.316;16.174;2022-07-22T11:56:51;5.90;;;5.07;;
38859;SDS011;24609;48.316;16.174;2022-07-22T11:59:17;5.10;;;4.50;;
38859;SDS011;24609;48.316;16.174;2022-07-22T12:01:44;5.85;;;5.35;;
38859;SDS011;24609;48.316;16.174;2022-07-22T12:06:41;5.30;;;4.80;;
38859;SDS011;24609;48.316;16.174;2022-07-22T12:11:36;5.28;;;4.70;;
38859;SDS011;24609;48.316;16.174;2022-07-22T12:14:07;6.00;;;5.40;;
38859;SDS011;24609;48.316;16.174;2022-07-22T12:16:35;6.38;;;5.05;;
38859;SDS011;24609;48.316;16.174;2022-07-22T12:21:32;5.75;;;5.05;;
38859;SDS011;24609;48.316;16.174;2022-07-22T12:24:14;8.93;;;5.18;;
38859;SDS011;24609;48.316;16.174;2022-07-22T12:29:17;8.23;;;5.10;;
38859;SDS011;24609;48.316;16.174;2022-07-22T12:31:45;5.40;;;4.90;;
38859;SDS011;24609;48.316;16.174;2022-07-22T12:34:12;5.80;;;5.25;;
38859;SDS011;24609;48.316;16.174;2022-07-22T12:36:38;5.32;;;4.82;;
38859;SDS011;24609;48.316;16.174;2022-07-22T12:39:15;6.50;;;5.80;;
38859;SDS011;24609;48.316;16.174;2022-07-22T12:41:46;6.18;;;5.57;;
38859;SDS011;24609;48.316;16.174;2022-07-22T12:44:20;5.82;;;5.10;;
38859;SDS011;24609;48.316;16.174;2022-07-22T12:46:50;5.90;;;5.40;;
38859;SDS011;24609;48.316;16.174;2022-07-22T12:49:24;5.03;;;4.63;;
38859;SDS011;24609;48.316;16.174;2022-07-22T12:52:12;5.97;;;5.25;;
38859;SDS011;24609;48.316;16.174;2022-07-22T12:54:39;5.57;;;5.07;;
38859;SDS011;24609;48.316;16.174;2022-07-22T12:57:07;5.75;;;5.15;;
38859;SDS011;24609;48.316;16.174;2022-07-22T12:59:34;5.90;;;5.32;;
38859;SDS011;24609;48.316;16.174;2022-07-22T13:02:01;5.38;;;4.88;;
38859;SDS011;24609;48.316;16.174;2022-07-22T13:04:27;5.70;;;5.13;;
38859;SDS011;24609;48.316;16.174;2022-07-22T13:06:53;5.78;;;5.32;;
38859;SDS011;24609;48.316;16.174;2022-07-22T13:09:19;5.22;;;4.72;;
38859;SDS011;24609;48.316;16.174;2022-07-22T13:11:45;6.32;;;5.30;;
38859;SDS011;24609;48.316;16.174;2022-07-22T13:14:11;5.65;;;5.20;;
38859;SDS011;24609;48.316;16.174;2022-07-22T13:19:04;5.55;;;5.05;;
38859;SDS011;24609;48.316;16.174;2022-07-22T13:21:29;7.93;;;5.20;;
38859;SDS011;24609;48.316;16.174;2022-07-22T13:23:55;5.97;;;5.38;;
38859;SDS011;24609;48.316;16.174;2022-07-22T13:26:21;6.38;;;5.78;;
38859;SDS011;24609;48.316;16.174;2022-07-22T13:28:47;5.68;;;5.13;;
38859;SDS011;24609;48.316;16.174;2022-07-22T13:31:13;6.13;;;5.53;;
38859;SDS011;24609;48.316;16.174;2022-07-22T13:33:38;6.05;;;5.50;;
38859;SDS011;24609;48.316;16.174;2022-07-22T13:36:04;5.75;;;5.25;;
38859;SDS011;24609;48.316;16.174;2022-07-22T13:38:30;5.95;;;5.45;;
38859;SDS011;24609;48.316;16.174;2022-07-22T13:40:56;5.63;;;5.22;;
38859;SDS011;24609;48.316;16.174;2022-07-22T13:43:23;8.00;;;5.80;;
38859;SDS011;24609;48.316;16.174;2022-07-22T13:45:49;5.97;;;5.47;;
38859;SDS011;24609;48.316;16.174;2022-07-22T13:48:16;9.55;;;5.68;;
38859;SDS011;24609;48.316;16.174;2022-07-22T13:50:45;5.90;;;5.45;;
38859;SDS011;24609;48.316;16.174;2022-07-22T13:53:11;5.47;;;4.97;;
38859;SDS011;24609;48.316;16.174;2022-07-22T13:55:38;9.98;;;5.97;;
38859;SDS011;24609;48.316;16.174;2022-07-22T13:58:04;6.20;;;5.32;;
38859;SDS011;24609;48.316;16.174;2022-07-22T14:00:30;61.67;;;31.13;;
38859;SDS011;24609;48.316;16.174;2022-07-22T14:02:56;13.52;;;5.53;;
38859;SDS011;24609;48.316;16.174;2022-07-22T14:05:21;8.70;;;5.93;;
38859;SDS011;24609;48.316;16.174;2022-07-22T14:07:47;6.95;;;5.65;;
38859;SDS011;24609;48.316;16.174;2022-07-22T14:10:13;5.43;;;4.90;;
38859;SDS011;24609;48.316;16.174;2022-07-22T14:12:39;6.00;;;5.50;;
38859;SDS011;24609;48.316;16.174;2022-07-22T14:15:06;6.38;;;5.10;;
38859;SDS011;24609;48.316;16.174;2022-07-22T14:17:33;5.85;;;5.25;;
38859;SDS011;24609;48.316;16.174;2022-07-22T14:19:58;6.22;;;5.22;;
38859;SDS011;24609;48.316;16.174;2022-07-22T14:22:24;7.22;;;5.68;;
38859;SDS011;24609;48.316;16.174;2022-07-22T14:24:50;7.05;;;5.88;;
38859;SDS011;24609;48.316;16.174;2022-07-22T14:27:16;6.20;;;5.70;;
38859;SDS011;24609;48.316;16.174;2022-07-22T14:29:42;6.40;;;5.53;;
38859;SDS011;24609;48.316;16.174;2022-07-22T14:32:08;5.90;;;5.30;;
38859;SDS011;24609;48.316;16.174;2022-07-22T14:34:33;6.25;;;5.60;;
38859;SDS011;24609;48.316;16.174;2022-07-22T14:36:59;7.95;;;6.57;;
38859;SDS011;24609;48.316;16.174;2022-07-22T14:39:25;6.50;;;5.78;;
38859;SDS011;24609;48.316;16.174;2022-07-22T14:41:50;8.68;;;6.07;;
38859;SDS011;24609;48.316;16.174;2022-07-22T14:44:16;5.75;;;5.15;;
38859;SDS011;24609;48.316;16.174;2022-07-22T14:46:42;6.60;;;6.00;;
38859;SDS011;24609;48.316;16.174;2022-07-22T14:49:08;7.13;;;5.53;;